sensor_id;sensor_type;location;lat;lon;timestamp;temperature;humidity
34522;DHT22;25561;48.888;8.736;2023-04-06T05:30:40;1.40;99.90
34522;DHT22;25561;48.888;8.736;2023-04-06T05:33:42;1.90;99.90
34522;DHT22;25561;48.888;8.736;2023-04-06T05:36:44;2.90;99.90
34522;DHT22;25561;48.888;8.736;2023-04-06T05:39:45;4.10;99.90
34522;DHT22;25561;48.888;8.736;2023-04-06T05:42:47;5.20;99.90
34522;DHT22;25561;48.888;8.736;2023-04-06T05:45:50;6.00;99.90
34522;DHT22;25561;48.888;8.736;2023-04-06T05:48:52;6.80;99.90
34522;DHT22;25561;48.888;8.736;2023-04-06T05:51:55;8.00;99.90
34522;DHT22;25561;48.888;8.736;2023-04-06T05:54:56;8.70;99.90
34522;DHT22;25561;48.888;8.736;2023-04-06T05:57:58;9.00;99.90
34522;DHT22;25561;48.888;8.736;2023-04-06T06:01:01;9.20;99.90
34522;DHT22;25561;48.888;8.736;2023-04-06T06:04:04;9.60;99.90
34522;DHT22;25561;48.888;8.736;2023-04-06T06:07:06;8.80;99.90
34522;DHT22;25561;48.888;8.736;2023-04-06T06:10:08;9.20;99.90
34522;DHT22;25561;48.888;8.736;2023-04-06T06:49:44;11.40;99.90
34522;DHT22;25561;48.888;8.736;2023-04-06T06:52:46;11.30;99.90
34522;DHT22;25561;48.888;8.736;2023-04-06T06:55:48;10.90;99.90
34522;DHT22;25561;48.888;8.736;2023-04-06T06:58:52;11.20;99.90
34522;DHT22;25561;48.888;8.736;2023-04-06T07:01:54;11.80;99.90
34522;DHT22;25561;48.888;8.736;2023-04-06T07:04:56;12.80;99.90
34522;DHT22;25561;48.888;8.736;2023-04-06T07:07:58;14.10;99.90
34522;DHT22;25561;48.888;8.736;2023-04-06T07:11:00;12.90;99.90
34522;DHT22;25561;48.888;8.736;2023-04-06T07:14:01;12.80;99.90
34522;DHT22;25561;48.888;8.736;2023-04-06T07:17:03;12.90;99.90
34522;DHT22;25561;48.888;8.736;2023-04-06T07:20:06;13.50;99.40
34522;DHT22;25561;48.888;8.736;2023-04-06T07:23:08;14.80;98.20
34522;DHT22;25561;48.888;8.736;2023-04-06T07:26:10;15.80;94.70
34522;DHT22;25561;48.888;8.736;2023-04-06T07:29:11;15.70;94.30
34522;DHT22;25561;48.888;8.736;2023-04-06T07:32:14;15.50;93.30
34522;DHT22;25561;48.888;8.736;2023-04-06T07:35:16;15.80;92.70
34522;DHT22;25561;48.888;8.736;2023-04-06T07:38:18;16.60;91.90
34522;DHT22;25561;48.888;8.736;2023-04-06T07:41:19;16.00;91.00
34522;DHT22;25561;48.888;8.736;2023-04-06T07:44:21;15.50;92.10
34522;DHT22;25561;48.888;8.736;2023-04-06T07:47:23;16.40;89.50
34522;DHT22;25561;48.888;8.736;2023-04-06T07:50:25;16.40;89.40
34522;DHT22;25561;48.888;8.736;2023-04-06T07:53:26;15.50;87.20
34522;DHT22;25561;48.888;8.736;2023-04-06T07:56:28;17.00;82.80
34522;DHT22;25561;48.888;8.736;2023-04-06T07:59:30;17.40;78.70
34522;DHT22;25561;48.888;8.736;2023-04-06T08:02:32;17.10;81.00
34522;DHT22;25561;48.888;8.736;2023-04-06T08:05:34;16.90;79.40
34522;DHT22;25561;48.888;8.736;2023-04-06T08:08:36;17.10;80.00
34522;DHT22;25561;48.888;8.736;2023-04-06T08:11:37;17.20;78.40
34522;DHT22;25561;48.888;8.736;2023-04-06T08:14:39;17.20;78.50
34522;DHT22;25561;48.888;8.736;2023-04-06T08:17:41;16.60;78.20
34522;DHT22;25561;48.888;8.736;2023-04-06T08:20:43;16.80;78.10
34522;DHT22;25561;48.888;8.736;2023-04-06T08:23:45;18.00;75.20
34522;DHT22;25561;48.888;8.736;2023-04-06T08:26:47;18.50;74.80
34522;DHT22;25561;48.888;8.736;2023-04-06T08:29:49;18.00;76.10
34522;DHT22;25561;48.888;8.736;2023-04-06T08:32:52;17.70;75.30
34522;DHT22;25561;48.888;8.736;2023-04-06T08:35:54;18.60;73.40
34522;DHT22;25561;48.888;8.736;2023-04-06T08:38:56;18.80;67.50
34522;DHT22;25561;48.888;8.736;2023-04-06T08:41:58;19.40;68.20
34522;DHT22;25561;48.888;8.736;2023-04-06T08:45:01;18.30;66.30
34522;DHT22;25561;48.888;8.736;2023-04-06T08:48:05;18.70;65.90
34522;DHT22;25561;48.888;8.736;2023-04-06T08:51:09;18.50;63.80
34522;DHT22;25561;48.888;8.736;2023-04-06T08:54:11;17.20;65.10
34522;DHT22;25561;48.888;8.736;2023-04-06T08:57:13;15.50;67.70
34522;DHT22;25561;48.888;8.736;2023-04-06T09:00:15;14.80;71.80
34522;DHT22;25561;48.888;8.736;2023-04-06T09:03:19;14.10;71.80
34522;DHT22;25561;48.888;8.736;2023-04-06T09:06:22;14.30;76.90
34522;DHT22;25561;48.888;8.736;2023-04-06T09:09:23;16.00;71.90
34522;DHT22;25561;48.888;8.736;2023-04-06T09:12:27;17.40;67.60
34522;DHT22;25561;48.888;8.736;2023-04-06T09:15:29;17.40;69.10
34522;DHT22;25561;48.888;8.736;2023-04-06T09:18:32;18.30;63.20
34522;DHT22;25561;48.888;8.736;2023-04-06T09:21:34;19.80;66.20
34522;DHT22;25561;48.888;8.736;2023-04-06T09:24:48;18.50;63.00
34522;DHT22;25561;48.888;8.736;2023-04-06T09:27:59;18.50;60.40
34522;DHT22;25561;48.888;8.736;2023-04-06T09:31:01;18.90;65.40
34522;DHT22;25561;48.888;8.736;2023-04-06T09:34:03;19.50;60.10
34522;DHT22;25561;48.888;8.736;2023-04-06T09:37:17;19.30;59.20
34522;DHT22;25561;48.888;8.736;2023-04-06T09:40:19;18.20;59.90
34522;DHT22;25561;48.888;8.736;2023-04-06T09:43:28;19.00;61.10
34522;DHT22;25561;48.888;8.736;2023-04-06T09:46:32;19.50;58.40
34522;DHT22;25561;48.888;8.736;2023-04-06T09:49:56;21.50;55.10
34522;DHT22;25561;48.888;8.736;2023-04-06T09:53:01;21.70;52.10
34522;DHT22;25561;48.888;8.736;2023-04-06T09:56:11;21.60;51.10
34522;DHT22;25561;48.888;8.736;2023-04-06T09:59:21;21.70;51.80
34522;DHT22;25561;48.888;8.736;2023-04-06T10:02:41;21.20;49.60
34522;DHT22;25561;48.888;8.736;2023-04-06T10:05:51;19.40;51.40
34522;DHT22;25561;48.888;8.736;2023-04-06T10:08:55;19.00;56.20
34522;DHT22;25561;48.888;8.736;2023-04-06T10:11:58;20.60;52.60
34522;DHT22;25561;48.888;8.736;2023-04-06T10:15:00;19.90;50.10
34522;DHT22;25561;48.888;8.736;2023-04-06T10:18:03;17.80;53.90
34522;DHT22;25561;48.888;8.736;2023-04-06T10:21:13;16.00;57.70
34522;DHT22;25561;48.888;8.736;2023-04-06T10:24:15;16.40;58.80
34522;DHT22;25561;48.888;8.736;2023-04-06T10:27:28;17.50;59.50
34522;DHT22;25561;48.888;8.736;2023-04-06T10:30:31;17.70;57.10
34522;DHT22;25561;48.888;8.736;2023-04-06T10:33:34;18.20;57.30
34522;DHT22;25561;48.888;8.736;2023-04-06T10:36:36;19.00;59.00
34522;DHT22;25561;48.888;8.736;2023-04-06T10:39:54;18.20;54.90
34522;DHT22;25561;48.888;8.736;2023-04-06T10:46:28;17.90;54.10
34522;DHT22;25561;48.888;8.736;2023-04-06T10:49:30;18.70;53.40
34522;DHT22;25561;48.888;8.736;2023-04-06T10:52:32;19.00;52.70
34522;DHT22;25561;48.888;8.736;2023-04-06T10:55:34;18.80;56.80
34522;DHT22;25561;48.888;8.736;2023-04-06T10:58:36;18.70;58.00
34522;DHT22;25561;48.888;8.736;2023-04-06T11:01:38;19.20;54.70
34522;DHT22;25561;48.888;8.736;2023-04-06T11:04:56;19.60;53.90
34522;DHT22;25561;48.888;8.736;2023-04-06T11:07:59;18.60;54.60
34522;DHT22;25561;48.888;8.736;2023-04-06T11:11:07;18.60;54.60
34522;DHT22;25561;48.888;8.736;2023-04-06T11:14:09;18.90;54.70
34522;DHT22;25561;48.888;8.736;2023-04-06T11:17:12;17.30;54.70
34522;DHT22;25561;48.888;8.736;2023-04-06T11:20:14;17.30;56.60
34522;DHT22;25561;48.888;8.736;2023-04-06T11:23:23;17.50;56.10
34522;DHT22;25561;48.888;8.736;2023-04-06T11:26:25;18.60;58.70
34522;DHT22;25561;48.888;8.736;2023-04-06T11:29:28;19.10;57.20
34522;DHT22;25561;48.888;8.736;2023-04-06T11:32:43;18.50;55.10
34522;DHT22;25561;48.888;8.736;2023-04-06T11:35:45;19.20;57.50
34522;DHT22;25561;48.888;8.736;2023-04-06T11:38:47;19.00;56.90
34522;DHT22;25561;48.888;8.736;2023-04-06T11:41:51;17.40;56.20
34522;DHT22;25561;48.888;8.736;2023-04-06T11:44:57;16.60;56.70
34522;DHT22;25561;48.888;8.736;2023-04-06T11:48:00;16.80;59.50
34522;DHT22;25561;48.888;8.736;2023-04-06T11:51:02;16.30;57.10
34522;DHT22;25561;48.888;8.736;2023-04-06T11:54:06;15.40;57.10
34522;DHT22;25561;48.888;8.736;2023-04-06T11:57:08;14.80;59.80
34522;DHT22;25561;48.888;8.736;2023-04-06T12:00:11;14.80;63.80
34522;DHT22;25561;48.888;8.736;2023-04-06T12:03:14;14.90;61.10
34522;DHT22;25561;48.888;8.736;2023-04-06T12:06:17;15.10;62.50
34522;DHT22;25561;48.888;8.736;2023-04-06T12:09:18;15.40;60.10
34522;DHT22;25561;48.888;8.736;2023-04-06T12:12:20;15.00;60.90
34522;DHT22;25561;48.888;8.736;2023-04-06T12:15:22;15.10;62.20
34522;DHT22;25561;48.888;8.736;2023-04-06T12:18:23;14.50;60.00
34522;DHT22;25561;48.888;8.736;2023-04-06T12:21:27;15.00;59.30
34522;DHT22;25561;48.888;8.736;2023-04-06T12:24:29;15.20;59.30
34522;DHT22;25561;48.888;8.736;2023-04-06T12:27:31;15.10;63.10
34522;DHT22;25561;48.888;8.736;2023-04-06T12:30:35;14.80;62.80
34522;DHT22;25561;48.888;8.736;2023-04-06T12:33:37;15.20;64.90
34522;DHT22;25561;48.888;8.736;2023-04-06T12:36:38;15.70;63.80
34522;DHT22;25561;48.888;8.736;2023-04-06T12:39:40;15.50;62.80
34522;DHT22;25561;48.888;8.736;2023-04-06T12:42:42;15.50;66.60
34522;DHT22;25561;48.888;8.736;2023-04-06T12:45:44;15.70;68.20
34522;DHT22;25561;48.888;8.736;2023-04-06T12:48:46;15.60;66.00
34522;DHT22;25561;48.888;8.736;2023-04-06T12:51:48;15.20;64.90
34522;DHT22;25561;48.888;8.736;2023-04-06T12:54:50;14.90;67.40
34522;DHT22;25561;48.888;8.736;2023-04-06T12:58:04;15.20;66.00
34522;DHT22;25561;48.888;8.736;2023-04-06T13:01:07;15.00;66.10
34522;DHT22;25561;48.888;8.736;2023-04-06T13:04:10;15.10;67.00
34522;DHT22;25561;48.888;8.736;2023-04-06T13:07:11;14.90;64.50
34522;DHT22;25561;48.888;8.736;2023-04-06T13:10:13;14.70;67.40
34522;DHT22;25561;48.888;8.736;2023-04-06T13:13:15;14.90;69.90
34522;DHT22;25561;48.888;8.736;2023-04-06T13:16:17;14.80;69.90
34522;DHT22;25561;48.888;8.736;2023-04-06T13:19:19;14.70;69.00
34522;DHT22;25561;48.888;8.736;2023-04-06T13:22:21;14.60;69.90
34522;DHT22;25561;48.888;8.736;2023-04-06T13:25:23;14.70;70.80
34522;DHT22;25561;48.888;8.736;2023-04-06T13:28:24;14.30;71.60
34522;DHT22;25561;48.888;8.736;2023-04-06T13:31:28;14.70;68.70
34522;DHT22;25561;48.888;8.736;2023-04-06T13:34:29;14.80;66.90
34522;DHT22;25561;48.888;8.736;2023-04-06T13:37:32;15.20;65.80
34522;DHT22;25561;48.888;8.736;2023-04-06T13:40:34;15.20;63.70
34522;DHT22;25561;48.888;8.736;2023-04-06T13:43:36;15.00;66.10
34522;DHT22;25561;48.888;8.736;2023-04-06T13:46:37;15.00;66.10
34522;DHT22;25561;48.888;8.736;2023-04-06T13:49:39;15.00;66.10
34522;DHT22;25561;48.888;8.736;2023-04-06T13:52:42;14.90;66.60
34522;DHT22;25561;48.888;8.736;2023-04-06T13:55:43;15.10;65.60
34522;DHT22;25561;48.888;8.736;2023-04-06T13:58:45;15.00;70.20
34522;DHT22;25561;48.888;8.736;2023-04-06T14:01:47;14.80;66.80
34522;DHT22;25561;48.888;8.736;2023-04-06T14:04:49;15.00;69.80
34522;DHT22;25561;48.888;8.736;2023-04-06T14:07:51;15.20;70.30
34522;DHT22;25561;48.888;8.736;2023-04-06T14:10:53;15.10;72.20
34522;DHT22;25561;48.888;8.736;2023-04-06T14:13:56;15.00;71.00
34522;DHT22;25561;48.888;8.736;2023-04-06T14:16:59;15.00;70.60
34522;DHT22;25561;48.888;8.736;2023-04-06T14:20:01;14.70;70.80
34522;DHT22;25561;48.888;8.736;2023-04-06T14:23:04;14.90;68.80
34522;DHT22;25561;48.888;8.736;2023-04-06T14:26:07;14.80;72.10
34522;DHT22;25561;48.888;8.736;2023-04-06T14:29:09;14.90;71.80
34522;DHT22;25561;48.888;8.736;2023-04-06T14:32:11;14.90;72.50
34522;DHT22;25561;48.888;8.736;2023-04-06T14:35:13;14.60;70.20
34522;DHT22;25561;48.888;8.736;2023-04-06T14:38:15;14.40;71.40
34522;DHT22;25561;48.888;8.736;2023-04-06T14:41:22;14.70;70.20
34522;DHT22;25561;48.888;8.736;2023-04-06T14:44:24;15.00;68.20
34522;DHT22;25561;48.888;8.736;2023-04-06T14:47:26;14.90;68.50
34522;DHT22;25561;48.888;8.736;2023-04-06T14:50:27;14.70;68.10
34522;DHT22;25561;48.888;8.736;2023-04-06T14:53:29;15.00;63.60
34522;DHT22;25561;48.888;8.736;2023-04-06T14:56:31;14.90;66.20
34522;DHT22;25561;48.888;8.736;2023-04-06T14:59:33;15.40;66.20
34522;DHT22;25561;48.888;8.736;2023-04-06T15:02:39;15.30;63.50
34522;DHT22;25561;48.888;8.736;2023-04-06T15:05:42;15.00;62.40
34522;DHT22;25561;48.888;8.736;2023-04-06T15:08:44;14.60;63.00
34522;DHT22;25561;48.888;8.736;2023-04-06T15:11:46;14.60;62.90
34522;DHT22;25561;48.888;8.736;2023-04-06T15:14:48;14.60;63.70
34522;DHT22;25561;48.888;8.736;2023-04-06T15:17:49;14.80;63.00
34522;DHT22;25561;48.888;8.736;2023-04-06T15:20:52;14.70;60.90
34522;DHT22;25561;48.888;8.736;2023-04-06T15:23:53;14.80;59.90
34522;DHT22;25561;48.888;8.736;2023-04-06T15:26:55;14.70;61.90
34522;DHT22;25561;48.888;8.736;2023-04-06T15:29:58;14.50;62.40
34522;DHT22;25561;48.888;8.736;2023-04-06T15:33:00;14.50;64.80
34522;DHT22;25561;48.888;8.736;2023-04-06T15:36:06;14.40;63.20
34522;DHT22;25561;48.888;8.736;2023-04-06T15:39:18;14.20;63.20
34522;DHT22;25561;48.888;8.736;2023-04-06T15:42:20;14.20;65.10
34522;DHT22;25561;48.888;8.736;2023-04-06T15:45:21;14.30;65.50
34522;DHT22;25561;48.888;8.736;2023-04-06T15:48:26;14.00;62.10
34522;DHT22;25561;48.888;8.736;2023-04-06T15:51:32;14.00;63.40
34522;DHT22;25561;48.888;8.736;2023-04-06T15:54:34;13.70;61.20
34522;DHT22;25561;48.888;8.736;2023-04-06T15:57:37;13.90;61.30
